sensor_id;sensor_type;location;lat;lon;timestamp;P1;durP1;ratioP1;P2;durP2;ratioP2
56321;SDS011;42227;6.376;-10.782;2023-07-28T00:01:28;10.65;;;4.53;;
56321;SDS011;42227;6.376;-10.782;2023-07-28T00:04:00;24.60;;;5.50;;
56321;SDS011;42227;6.376;-10.782;2023-07-28T00:06:29;11.43;;;5.07;;
56321;SDS011;42227;6.376;-10.782;2023-07-28T00:09:01;8.25;;;5.20;;
56321;SDS011;42227;6.376;-10.782;2023-07-28T00:11:30;15.98;;;8.70;;
56321;SDS011;42227;6.376;-10.782;2023-07-28T00:13:58;15.20;;;5.35;;
56321;SDS011;42227;6.376;-10.782;2023-07-28T00:16:26;29.10;;;15.27;;
56321;SDS011;42227;6.376;-10.782;2023-07-28T00:18:55;21.48;;;12.95;;
56321;SDS011;42227;6.376;-10.782;2023-07-28T00:21:24;29.95;;;14.82;;
56321;SDS011;42227;6.376;-10.782;2023-07-28T00:23:58;23.33;;;12.65;;
56321;SDS011;42227;6.376;-10.782;2023-07-28T00:26:27;23.45;;;11.80;;
56321;SDS011;42227;6.376;-10.782;2023-07-28T00:28:57;28.48;;;12.90;;
56321;SDS011;42227;6.376;-10.782;2023-07-28T00:31:26;32.30;;;18.10;;
56321;SDS011;42227;6.376;-10.782;2023-07-28T00:33:57;27.70;;;15.60;;
56321;SDS011;42227;6.376;-10.782;2023-07-28T00:36:26;27.52;;;14.70;;
56321;SDS011;42227;6.376;-10.782;2023-07-28T00:38:56;32.53;;;17.70;;
56321;SDS011;42227;6.376;-10.782;2023-07-28T00:41:25;43.10;;;21.02;;
56321;SDS011;42227;6.376;-10.782;2023-07-28T00:43:56;37.33;;;21.40;;
56321;SDS011;42227;6.376;-10.782;2023-07-28T00:46:26;27.30;;;13.20;;
56321;SDS011;42227;6.376;-10.782;2023-07-28T00:48:55;14.85;;;8.73;;
56321;SDS011;42227;6.376;-10.782;2023-07-28T00:51:25;10.68;;;6.32;;
56321;SDS011;42227;6.376;-10.782;2023-07-28T00:56:25;14.38;;;6.47;;
56321;SDS011;42227;6.376;-10.782;2023-07-28T00:58:55;9.50;;;6.38;;
56321;SDS011;42227;6.376;-10.782;2023-07-28T01:01:24;16.58;;;11.32;;
56321;SDS011;42227;6.376;-10.782;2023-07-28T01:03:52;25.95;;;14.23;;
56321;SDS011;42227;6.376;-10.782;2023-07-28T01:09:54;20.67;;;10.45;;
56321;SDS011;42227;6.376;-10.782;2023-07-28T01:14:52;12.15;;;6.55;;
56321;SDS011;42227;6.376;-10.782;2023-07-28T01:17:21;12.80;;;6.32;;
56321;SDS011;42227;6.376;-10.782;2023-07-28T01:19:50;6.40;;;4.22;;
56321;SDS011;42227;6.376;-10.782;2023-07-28T01:22:34;15.38;;;5.60;;
56321;SDS011;42227;6.376;-10.782;2023-07-28T01:28:20;10.60;;;4.38;;
56321;SDS011;42227;6.376;-10.782;2023-07-28T01:30:49;16.40;;;4.85;;
56321;SDS011;42227;6.376;-10.782;2023-07-28T01:33:18;14.15;;;7.40;;
56321;SDS011;42227;6.376;-10.782;2023-07-28T01:35:47;15.27;;;7.10;;
56321;SDS011;42227;6.376;-10.782;2023-07-28T01:38:15;18.35;;;8.30;;
56321;SDS011;42227;6.376;-10.782;2023-07-28T01:40:44;12.85;;;4.90;;
56321;SDS011;42227;6.376;-10.782;2023-07-28T01:43:13;15.43;;;5.47;;
56321;SDS011;42227;6.376;-10.782;2023-07-28T01:45:41;15.55;;;5.40;;
56321;SDS011;42227;6.376;-10.782;2023-07-28T01:48:10;10.23;;;4.90;;
56321;SDS011;42227;6.376;-10.782;2023-07-28T01:50:40;15.73;;;5.75;;
56321;SDS011;42227;6.376;-10.782;2023-07-28T01:53:09;12.68;;;6.00;;
56321;SDS011;42227;6.376;-10.782;2023-07-28T01:55:37;14.13;;;4.97;;
56321;SDS011;42227;6.376;-10.782;2023-07-28T01:58:06;12.02;;;5.43;;
56321;SDS011;42227;6.376;-10.782;2023-07-28T02:00:34;7.65;;;4.43;;
56321;SDS011;42227;6.376;-10.782;2023-07-28T02:03:03;13.10;;;5.60;;
56321;SDS011;42227;6.376;-10.782;2023-07-28T02:05:32;18.92;;;6.53;;
56321;SDS011;42227;6.376;-10.782;2023-07-28T02:08:00;22.35;;;6.25;;
56321;SDS011;42227;6.376;-10.782;2023-07-28T02:10:29;12.05;;;5.57;;
56321;SDS011;42227;6.376;-10.782;2023-07-28T02:12:58;12.07;;;5.95;;
56321;SDS011;42227;6.376;-10.782;2023-07-28T02:15:26;14.18;;;5.53;;
56321;SDS011;42227;6.376;-10.782;2023-07-28T02:17:55;15.35;;;7.20;;
56321;SDS011;42227;6.376;-10.782;2023-07-28T02:20:23;17.52;;;6.60;;
56321;SDS011;42227;6.376;-10.782;2023-07-28T02:22:52;22.05;;;9.15;;
56321;SDS011;42227;6.376;-10.782;2023-07-28T02:25:20;20.60;;;9.05;;
56321;SDS011;42227;6.376;-10.782;2023-07-28T02:27:49;25.02;;;8.38;;
56321;SDS011;42227;6.376;-10.782;2023-07-28T02:30:18;15.75;;;6.03;;
56321;SDS011;42227;6.376;-10.782;2023-07-28T02:32:46;22.27;;;6.63;;
56321;SDS011;42227;6.376;-10.782;2023-07-28T02:35:15;15.18;;;6.53;;
56321;SDS011;42227;6.376;-10.782;2023-07-28T02:37:47;14.77;;;6.82;;
56321;SDS011;42227;6.376;-10.782;2023-07-28T02:40:16;10.68;;;5.70;;
56321;SDS011;42227;6.376;-10.782;2023-07-28T02:42:44;15.63;;;6.35;;
56321;SDS011;42227;6.376;-10.782;2023-07-28T02:45:13;10.20;;;5.53;;
56321;SDS011;42227;6.376;-10.782;2023-07-28T02:47:41;14.63;;;6.07;;
56321;SDS011;42227;6.376;-10.782;2023-07-28T02:50:10;14.60;;;5.20;;
56321;SDS011;42227;6.376;-10.782;2023-07-28T02:52:39;13.10;;;5.93;;
56321;SDS011;42227;6.376;-10.782;2023-07-28T02:55:07;16.70;;;6.13;;
56321;SDS011;42227;6.376;-10.782;2023-07-28T02:57:36;11.93;;;5.82;;
56321;SDS011;42227;6.376;-10.782;2023-07-28T03:00:05;9.02;;;4.90;;
56321;SDS011;42227;6.376;-10.782;2023-07-28T03:02:34;12.30;;;5.55;;
56321;SDS011;42227;6.376;-10.782;2023-07-28T03:05:03;16.45;;;6.20;;
56321;SDS011;42227;6.376;-10.782;2023-07-28T03:08:01;14.93;;;4.90;;
56321;SDS011;42227;6.376;-10.782;2023-07-28T03:10:30;13.13;;;4.50;;
56321;SDS011;42227;6.376;-10.782;2023-07-28T03:12:59;10.77;;;5.53;;
56321;SDS011;42227;6.376;-10.782;2023-07-28T03:15:27;10.40;;;5.70;;
56321;SDS011;42227;6.376;-10.782;2023-07-28T03:17:56;8.15;;;5.45;;
56321;SDS011;42227;6.376;-10.782;2023-07-28T03:20:24;14.88;;;5.13;;
56321;SDS011;42227;6.376;-10.782;2023-07-28T03:22:53;17.27;;;6.57;;
56321;SDS011;42227;6.376;-10.782;2023-07-28T03:25:22;12.32;;;6.60;;
56321;SDS011;42227;6.376;-10.782;2023-07-28T03:27:51;12.02;;;6.32;;
56321;SDS011;42227;6.376;-10.782;2023-07-28T03:30:20;14.07;;;6.25;;
56321;SDS011;42227;6.376;-10.782;2023-07-28T03:32:48;10.98;;;5.00;;
56321;SDS011;42227;6.376;-10.782;2023-07-28T03:35:17;15.82;;;6.28;;
56321;SDS011;42227;6.376;-10.782;2023-07-28T03:37:53;11.73;;;5.45;;
56321;SDS011;42227;6.376;-10.782;2023-07-28T03:40:21;12.43;;;4.82;;
56321;SDS011;42227;6.376;-10.782;2023-07-28T03:42:52;11.38;;;4.78;;
56321;SDS011;42227;6.376;-10.782;2023-07-28T03:45:21;16.83;;;5.72;;
56321;SDS011;42227;6.376;-10.782;2023-07-28T03:47:50;13.85;;;6.10;;
56321;SDS011;42227;6.376;-10.782;2023-07-28T03:50:18;10.15;;;4.65;;
56321;SDS011;42227;6.376;-10.782;2023-07-28T03:52:47;14.40;;;4.82;;
56321;SDS011;42227;6.376;-10.782;2023-07-28T03:55:16;13.63;;;5.68;;
56321;SDS011;42227;6.376;-10.782;2023-07-28T03:57:45;10.45;;;3.33;;
56321;SDS011;42227;6.376;-10.782;2023-07-28T04:00:14;9.73;;;3.45;;
56321;SDS011;42227;6.376;-10.782;2023-07-28T04:02:43;10.52;;;3.47;;
56321;SDS011;42227;6.376;-10.782;2023-07-28T04:05:11;9.98;;;5.45;;
56321;SDS011;42227;6.376;-10.782;2023-07-28T04:07:40;13.05;;;5.88;;
56321;SDS011;42227;6.376;-10.782;2023-07-28T04:10:09;11.18;;;5.65;;
56321;SDS011;42227;6.376;-10.782;2023-07-28T04:12:37;11.32;;;6.07;;
56321;SDS011;42227;6.376;-10.782;2023-07-28T04:15:06;14.43;;;6.82;;
56321;SDS011;42227;6.376;-10.782;2023-07-28T04:17:35;18.20;;;7.25;;
56321;SDS011;42227;6.376;-10.782;2023-07-28T04:20:04;21.42;;;7.40;;
56321;SDS011;42227;6.376;-10.782;2023-07-28T04:22:34;18.30;;;7.25;;
56321;SDS011;42227;6.376;-10.782;2023-07-28T04:25:02;12.23;;;7.43;;
56321;SDS011;42227;6.376;-10.782;2023-07-28T04:27:33;10.50;;;5.85;;
56321;SDS011;42227;6.376;-10.782;2023-07-28T04:30:04;11.48;;;6.60;;
56321;SDS011;42227;6.376;-10.782;2023-07-28T04:32:33;14.93;;;6.35;;
56321;SDS011;42227;6.376;-10.782;2023-07-28T04:35:09;9.40;;;5.88;;
56321;SDS011;42227;6.376;-10.782;2023-07-28T04:37:42;12.18;;;6.53;;
56321;SDS011;42227;6.376;-10.782;2023-07-28T04:40:15;12.10;;;5.32;;
56321;SDS011;42227;6.376;-10.782;2023-07-28T04:42:44;19.35;;;6.30;;
56321;SDS011;42227;6.376;-10.782;2023-07-28T04:45:12;10.73;;;6.75;;
56321;SDS011;42227;6.376;-10.782;2023-07-28T04:47:41;15.77;;;8.15;;
56321;SDS011;42227;6.376;-10.782;2023-07-28T04:50:10;21.55;;;12.00;;
56321;SDS011;42227;6.376;-10.782;2023-07-28T04:52:59;16.05;;;7.25;;
56321;SDS011;42227;6.376;-10.782;2023-07-28T04:55:45;18.30;;;7.43;;
56321;SDS011;42227;6.376;-10.782;2023-07-28T04:58:14;14.30;;;5.80;;
56321;SDS011;42227;6.376;-10.782;2023-07-28T05:00:48;9.52;;;5.70;;
56321;SDS011;42227;6.376;-10.782;2023-07-28T05:03:17;12.55;;;6.30;;
56321;SDS011;42227;6.376;-10.782;2023-07-28T05:05:52;23.48;;;9.98;;
56321;SDS011;42227;6.376;-10.782;2023-07-28T05:08:21;14.20;;;7.90;;
56321;SDS011;42227;6.376;-10.782;2023-07-28T05:10:53;15.02;;;7.50;;
56321;SDS011;42227;6.376;-10.782;2023-07-28T05:13:24;13.35;;;6.00;;
56321;SDS011;42227;6.376;-10.782;2023-07-28T05:15:56;15.00;;;6.13;;
56321;SDS011;42227;6.376;-10.782;2023-07-28T05:19:07;17.30;;;8.05;;
56321;SDS011;42227;6.376;-10.782;2023-07-28T05:21:55;11.57;;;7.40;;
56321;SDS011;42227;6.376;-10.782;2023-07-28T05:24:39;16.08;;;5.95;;
56321;SDS011;42227;6.376;-10.782;2023-07-28T05:27:08;17.55;;;6.47;;
56321;SDS011;42227;6.376;-10.782;2023-07-28T05:29:37;8.93;;;4.60;;
56321;SDS011;42227;6.376;-10.782;2023-07-28T05:32:06;10.60;;;5.45;;
56321;SDS011;42227;6.376;-10.782;2023-07-28T05:34:53;12.88;;;6.15;;
56321;SDS011;42227;6.376;-10.782;2023-07-28T05:37:30;6.05;;;4.28;;
56321;SDS011;42227;6.376;-10.782;2023-07-28T05:39:59;20.52;;;5.60;;
56321;SDS011;42227;6.376;-10.782;2023-07-28T05:42:29;12.50;;;5.93;;
56321;SDS011;42227;6.376;-10.782;2023-07-28T05:44:58;11.63;;;6.50;;
56321;SDS011;42227;6.376;-10.782;2023-07-28T05:47:27;15.35;;;6.60;;
56321;SDS011;42227;6.376;-10.782;2023-07-28T05:49:56;9.48;;;6.78;;
56321;SDS011;42227;6.376;-10.782;2023-07-28T05:52:44;12.15;;;5.68;;
56321;SDS011;42227;6.376;-10.782;2023-07-28T05:55:12;10.65;;;5.78;;
56321;SDS011;42227;6.376;-10.782;2023-07-28T05:57:41;8.68;;;5.32;;
56321;SDS011;42227;6.376;-10.782;2023-07-28T06:00:10;12.75;;;5.53;;
56321;SDS011;42227;6.376;-10.782;2023-07-28T06:02:41;15.30;;;6.90;;
56321;SDS011;42227;6.376;-10.782;2023-07-28T06:05:21;19.23;;;7.35;;
56321;SDS011;42227;6.376;-10.782;2023-07-28T06:07:50;15.32;;;6.15;;
56321;SDS011;42227;6.376;-10.782;2023-07-28T06:10:18;10.23;;;5.32;;
56321;SDS011;42227;6.376;-10.782;2023-07-28T06:12:47;15.27;;;7.15;;
56321;SDS011;42227;6.376;-10.782;2023-07-28T06:15:16;14.70;;;6.97;;
56321;SDS011;42227;6.376;-10.782;2023-07-28T06:17:47;15.98;;;7.10;;
56321;SDS011;42227;6.376;-10.782;2023-07-28T06:20:17;13.88;;;5.82;;
56321;SDS011;42227;6.376;-10.782;2023-07-28T06:22:46;10.38;;;5.63;;
56321;SDS011;42227;6.376;-10.782;2023-07-28T06:25:17;11.80;;;6.63;;
56321;SDS011;42227;6.376;-10.782;2023-07-28T06:27:45;23.80;;;6.13;;
56321;SDS011;42227;6.376;-10.782;2023-07-28T06:30:14;8.95;;;6.07;;
56321;SDS011;42227;6.376;-10.782;2023-07-28T06:32:42;11.40;;;6.85;;
56321;SDS011;42227;6.376;-10.782;2023-07-28T06:35:13;11.02;;;5.93;;
56321;SDS011;42227;6.376;-10.782;2023-07-28T06:37:42;12.00;;;7.50;;
56321;SDS011;42227;6.376;-10.782;2023-07-28T06:40:11;10.48;;;6.53;;
56321;SDS011;42227;6.376;-10.782;2023-07-28T06:42:39;8.93;;;6.03;;
56321;SDS011;42227;6.376;-10.782;2023-07-28T06:45:09;17.35;;;6.38;;
56321;SDS011;42227;6.376;-10.782;2023-07-28T06:47:38;11.68;;;6.22;;
56321;SDS011;42227;6.376;-10.782;2023-07-28T06:50:07;17.27;;;6.05;;
56321;SDS011;42227;6.376;-10.782;2023-07-28T06:52:35;15.27;;;6.07;;
56321;SDS011;42227;6.376;-10.782;2023-07-28T06:55:04;16.00;;;5.70;;
56321;SDS011;42227;6.376;-10.782;2023-07-28T06:57:34;13.18;;;6.05;;
56321;SDS011;42227;6.376;-10.782;2023-07-28T07:00:06;13.98;;;5.88;;
56321;SDS011;42227;6.376;-10.782;2023-07-28T07:02:35;10.02;;;6.15;;
56321;SDS011;42227;6.376;-10.782;2023-07-28T07:05:04;15.65;;;6.13;;
56321;SDS011;42227;6.376;-10.782;2023-07-28T07:07:33;13.18;;;6.25;;
56321;SDS011;42227;6.376;-10.782;2023-07-28T07:10:02;11.93;;;7.30;;
56321;SDS011;42227;6.376;-10.782;2023-07-28T07:12:31;17.83;;;6.63;;
56321;SDS011;42227;6.376;-10.782;2023-07-28T07:14:59;12.80;;;5.78;;
56321;SDS011;42227;6.376;-10.782;2023-07-28T07:17:28;9.13;;;5.28;;
56321;SDS011;42227;6.376;-10.782;2023-07-28T07:19:57;8.35;;;5.13;;
56321;SDS011;42227;6.376;-10.782;2023-07-28T07:22:26;9.60;;;5.47;;
56321;SDS011;42227;6.376;-10.782;2023-07-28T07:24:55;9.90;;;4.65;;
56321;SDS011;42227;6.376;-10.782;2023-07-28T07:27:25;12.25;;;5.00;;
56321;SDS011;42227;6.376;-10.782;2023-07-28T07:29:54;9.65;;;6.65;;
56321;SDS011;42227;6.376;-10.782;2023-07-28T07:32:22;21.75;;;6.75;;
56321;SDS011;42227;6.376;-10.782;2023-07-28T07:34:51;9.77;;;6.32;;
56321;SDS011;42227;6.376;-10.782;2023-07-28T07:37:20;11.73;;;6.68;;
56321;SDS011;42227;6.376;-10.782;2023-07-28T07:39:48;17.25;;;7.40;;
56321;SDS011;42227;6.376;-10.782;2023-07-28T07:42:17;16.80;;;7.25;;
56321;SDS011;42227;6.376;-10.782;2023-07-28T07:44:45;13.25;;;6.38;;
56321;SDS011;42227;6.376;-10.782;2023-07-28T07:47:14;19.05;;;6.18;;
56321;SDS011;42227;6.376;-10.782;2023-07-28T07:49:43;21.40;;;9.15;;
56321;SDS011;42227;6.376;-10.782;2023-07-28T07:52:11;25.17;;;8.65;;
56321;SDS011;42227;6.376;-10.782;2023-07-28T07:54:42;17.95;;;7.28;;
56321;SDS011;42227;6.376;-10.782;2023-07-28T07:57:14;19.02;;;8.10;;
56321;SDS011;42227;6.376;-10.782;2023-07-28T07:59:43;19.35;;;9.48;;
56321;SDS011;42227;6.376;-10.782;2023-07-28T08:02:13;26.23;;;11.07;;
56321;SDS011;42227;6.376;-10.782;2023-07-28T08:04:42;19.33;;;10.25;;
56321;SDS011;42227;6.376;-10.782;2023-07-28T08:07:11;23.05;;;10.25;;
56321;SDS011;42227;6.376;-10.782;2023-07-28T08:09:40;17.05;;;7.38;;
56321;SDS011;42227;6.376;-10.782;2023-07-28T08:12:09;17.17;;;7.50;;
56321;SDS011;42227;6.376;-10.782;2023-07-28T08:14:40;21.42;;;10.60;;
56321;SDS011;42227;6.376;-10.782;2023-07-28T08:17:09;14.38;;;9.02;;
56321;SDS011;42227;6.376;-10.782;2023-07-28T08:19:38;14.70;;;8.85;;
56321;SDS011;42227;6.376;-10.782;2023-07-28T08:22:16;15.68;;;9.10;;
56321;SDS011;42227;6.376;-10.782;2023-07-28T08:25:05;17.38;;;7.47;;
56321;SDS011;42227;6.376;-10.782;2023-07-28T08:27:34;15.85;;;7.50;;
56321;SDS011;42227;6.376;-10.782;2023-07-28T08:30:03;15.98;;;7.97;;
56321;SDS011;42227;6.376;-10.782;2023-07-28T08:32:32;25.05;;;9.10;;
56321;SDS011;42227;6.376;-10.782;2023-07-28T08:35:01;18.60;;;9.38;;
56321;SDS011;42227;6.376;-10.782;2023-07-28T08:37:30;18.13;;;8.68;;
56321;SDS011;42227;6.376;-10.782;2023-07-28T08:39:58;15.07;;;8.95;;
56321;SDS011;42227;6.376;-10.782;2023-07-28T08:42:31;13.45;;;7.32;;
56321;SDS011;42227;6.376;-10.782;2023-07-28T08:45:04;13.25;;;8.45;;
56321;SDS011;42227;6.376;-10.782;2023-07-28T08:47:34;18.20;;;8.10;;
56321;SDS011;42227;6.376;-10.782;2023-07-28T08:50:04;18.13;;;9.20;;
56321;SDS011;42227;6.376;-10.782;2023-07-28T08:52:33;20.85;;;8.10;;
56321;SDS011;42227;6.376;-10.782;2023-07-28T08:55:02;12.15;;;7.38;;
56321;SDS011;42227;6.376;-10.782;2023-07-28T08:57:30;12.98;;;8.15;;
56321;SDS011;42227;6.376;-10.782;2023-07-28T09:00:06;21.83;;;9.23;;
56321;SDS011;42227;6.376;-10.782;2023-07-28T09:02:35;15.15;;;8.27;;
56321;SDS011;42227;6.376;-10.782;2023-07-28T09:05:04;20.10;;;8.25;;
56321;SDS011;42227;6.376;-10.782;2023-07-28T09:07:36;13.90;;;6.80;;
56321;SDS011;42227;6.376;-10.782;2023-07-28T09:10:07;24.27;;;7.13;;
56321;SDS011;42227;6.376;-10.782;2023-07-28T09:12:36;15.57;;;7.35;;
56321;SDS011;42227;6.376;-10.782;2023-07-28T09:15:13;12.27;;;6.85;;
56321;SDS011;42227;6.376;-10.782;2023-07-28T09:17:45;19.00;;;7.70;;
56321;SDS011;42227;6.376;-10.782;2023-07-28T09:20:17;10.48;;;7.55;;
56321;SDS011;42227;6.376;-10.782;2023-07-28T09:22:45;9.82;;;6.88;;
56321;SDS011;42227;6.376;-10.782;2023-07-28T09:25:18;22.98;;;12.38;;
56321;SDS011;42227;6.376;-10.782;2023-07-28T09:27:52;29.92;;;12.45;;
56321;SDS011;42227;6.376;-10.782;2023-07-28T09:30:21;14.23;;;10.50;;
56321;SDS011;42227;6.376;-10.782;2023-07-28T09:32:53;20.75;;;11.00;;
56321;SDS011;42227;6.376;-10.782;2023-07-28T09:35:23;17.55;;;9.25;;
56321;SDS011;42227;6.376;-10.782;2023-07-28T09:37:52;19.73;;;9.63;;
56321;SDS011;42227;6.376;-10.782;2023-07-28T09:40:21;13.35;;;8.73;;
56321;SDS011;42227;6.376;-10.782;2023-07-28T09:42:51;15.80;;;8.93;;
56321;SDS011;42227;6.376;-10.782;2023-07-28T09:45:22;15.38;;;9.50;;
56321;SDS011;42227;6.376;-10.782;2023-07-28T09:47:55;17.85;;;9.48;;
56321;SDS011;42227;6.376;-10.782;2023-07-28T09:50:26;16.95;;;9.60;;
56321;SDS011;42227;6.376;-10.782;2023-07-28T09:52:57;19.50;;;8.23;;
56321;SDS011;42227;6.376;-10.782;2023-07-28T09:55:30;16.45;;;8.80;;
56321;SDS011;42227;6.376;-10.782;2023-07-28T09:58:02;18.67;;;10.07;;
56321;SDS011;42227;6.376;-10.782;2023-07-28T10:00:32;20.58;;;8.43;;
56321;SDS011;42227;6.376;-10.782;2023-07-28T10:03:02;19.80;;;9.15;;
56321;SDS011;42227;6.376;-10.782;2023-07-28T10:05:33;18.02;;;7.45;;
56321;SDS011;42227;6.376;-10.782;2023-07-28T10:08:02;14.23;;;8.18;;
56321;SDS011;42227;6.376;-10.782;2023-07-28T10:10:32;21.38;;;8.20;;
56321;SDS011;42227;6.376;-10.782;2023-07-28T10:13:01;14.00;;;8.02;;
56321;SDS011;42227;6.376;-10.782;2023-07-28T10:15:30;14.82;;;7.85;;
56321;SDS011;42227;6.376;-10.782;2023-07-28T10:18:00;20.08;;;8.45;;
56321;SDS011;42227;6.376;-10.782;2023-07-28T10:20:33;22.40;;;8.68;;
56321;SDS011;42227;6.376;-10.782;2023-07-28T10:25:36;14.13;;;7.80;;
56321;SDS011;42227;6.376;-10.782;2023-07-28T10:28:05;10.57;;;6.32;;
56321;SDS011;42227;6.376;-10.782;2023-07-28T10:30:36;14.48;;;8.63;;
56321;SDS011;42227;6.376;-10.782;2023-07-28T10:33:06;14.17;;;6.97;;
56321;SDS011;42227;6.376;-10.782;2023-07-28T10:39:22;12.77;;;7.30;;
56321;SDS011;42227;6.376;-10.782;2023-07-28T10:42:00;14.00;;;7.18;;
56321;SDS011;42227;6.376;-10.782;2023-07-28T10:44:31;17.88;;;8.68;;
56321;SDS011;42227;6.376;-10.782;2023-07-28T10:47:00;21.30;;;9.13;;
56321;SDS011;42227;6.376;-10.782;2023-07-28T10:49:29;16.63;;;7.60;;
56321;SDS011;42227;6.376;-10.782;2023-07-28T10:51:57;26.70;;;9.23;;
56321;SDS011;42227;6.376;-10.782;2023-07-28T10:54:26;15.07;;;6.95;;
56321;SDS011;42227;6.376;-10.782;2023-07-28T10:56:55;12.15;;;6.55;;
56321;SDS011;42227;6.376;-10.782;2023-07-28T10:59:24;14.77;;;6.80;;
56321;SDS011;42227;6.376;-10.782;2023-07-28T11:01:52;10.15;;;6.10;;
56321;SDS011;42227;6.376;-10.782;2023-07-28T11:04:21;11.48;;;6.75;;
56321;SDS011;42227;6.376;-10.782;2023-07-28T11:06:50;14.82;;;7.43;;
56321;SDS011;42227;6.376;-10.782;2023-07-28T11:09:22;16.55;;;7.60;;
56321;SDS011;42227;6.376;-10.782;2023-07-28T11:11:51;15.07;;;6.97;;
56321;SDS011;42227;6.376;-10.782;2023-07-28T11:14:20;16.38;;;8.48;;
56321;SDS011;42227;6.376;-10.782;2023-07-28T11:16:50;12.70;;;7.63;;
56321;SDS011;42227;6.376;-10.782;2023-07-28T11:19:19;13.15;;;7.45;;
56321;SDS011;42227;6.376;-10.782;2023-07-28T11:21:48;15.98;;;7.32;;
56321;SDS011;42227;6.376;-10.782;2023-07-28T11:24:19;11.55;;;7.57;;
56321;SDS011;42227;6.376;-10.782;2023-07-28T11:26:49;20.52;;;8.70;;
56321;SDS011;42227;6.376;-10.782;2023-07-28T11:29:20;13.85;;;6.55;;
56321;SDS011;42227;6.376;-10.782;2023-07-28T11:31:50;12.82;;;6.65;;
56321;SDS011;42227;6.376;-10.782;2023-07-28T11:34:19;9.73;;;5.45;;
56321;SDS011;42227;6.376;-10.782;2023-07-28T11:36:48;12.57;;;6.60;;
56321;SDS011;42227;6.376;-10.782;2023-07-28T11:39:17;10.73;;;6.18;;
56321;SDS011;42227;6.376;-10.782;2023-07-28T11:41:47;10.13;;;6.07;;
56321;SDS011;42227;6.376;-10.782;2023-07-28T11:44:17;16.08;;;5.80;;
56321;SDS011;42227;6.376;-10.782;2023-07-28T11:46:46;10.45;;;6.22;;
56321;SDS011;42227;6.376;-10.782;2023-07-28T11:49:15;13.77;;;6.32;;
56321;SDS011;42227;6.376;-10.782;2023-07-28T11:51:46;16.90;;;6.80;;
56321;SDS011;42227;6.376;-10.782;2023-07-28T11:54:17;14.75;;;6.78;;
56321;SDS011;42227;6.376;-10.782;2023-07-28T11:56:50;12.90;;;6.38;;
56321;SDS011;42227;6.376;-10.782;2023-07-28T12:02:00;12.40;;;5.65;;
56321;SDS011;42227;6.376;-10.782;2023-07-28T12:04:36;12.00;;;6.30;;
56321;SDS011;42227;6.376;-10.782;2023-07-28T12:07:10;13.55;;;6.78;;
56321;SDS011;42227;6.376;-10.782;2023-07-28T12:12:15;15.43;;;5.57;;
56321;SDS011;42227;6.376;-10.782;2023-07-28T12:14:49;12.63;;;6.85;;
56321;SDS011;42227;6.376;-10.782;2023-07-28T12:17:38;10.45;;;4.90;;
56321;SDS011;42227;6.376;-10.782;2023-07-28T12:20:09;8.10;;;5.63;;
56321;SDS011;42227;6.376;-10.782;2023-07-28T12:22:39;11.40;;;5.25;;
56321;SDS011;42227;6.376;-10.782;2023-07-28T12:25:09;14.00;;;7.50;;
56321;SDS011;42227;6.376;-10.782;2023-07-28T12:27:39;14.43;;;8.07;;
56321;SDS011;42227;6.376;-10.782;2023-07-28T12:30:08;15.50;;;9.15;;
56321;SDS011;42227;6.376;-10.782;2023-07-28T12:32:40;16.50;;;8.18;;
56321;SDS011;42227;6.376;-10.782;2023-07-28T12:35:29;20.70;;;12.38;;
56321;SDS011;42227;6.376;-10.782;2023-07-28T12:38:02;22.45;;;11.07;;
56321;SDS011;42227;6.376;-10.782;2023-07-28T12:40:52;17.83;;;11.40;;
56321;SDS011;42227;6.376;-10.782;2023-07-28T12:43:23;19.60;;;9.27;;
56321;SDS011;42227;6.376;-10.782;2023-07-28T12:45:55;21.00;;;9.20;;
56321;SDS011;42227;6.376;-10.782;2023-07-28T12:48:26;16.70;;;10.82;;
56321;SDS011;42227;6.376;-10.782;2023-07-28T12:50:55;17.38;;;9.75;;
56321;SDS011;42227;6.376;-10.782;2023-07-28T12:53:27;12.93;;;8.45;;
56321;SDS011;42227;6.376;-10.782;2023-07-28T12:55:56;14.68;;;8.82;;
56321;SDS011;42227;6.376;-10.782;2023-07-28T12:58:29;18.17;;;10.35;;
56321;SDS011;42227;6.376;-10.782;2023-07-28T13:01:00;16.23;;;9.35;;
56321;SDS011;42227;6.376;-10.782;2023-07-28T13:03:29;17.10;;;8.77;;
56321;SDS011;42227;6.376;-10.782;2023-07-28T13:06:04;13.18;;;7.32;;
56321;SDS011;42227;6.376;-10.782;2023-07-28T13:08:33;17.60;;;8.23;;
56321;SDS011;42227;6.376;-10.782;2023-07-28T13:11:05;16.02;;;7.47;;
56321;SDS011;42227;6.376;-10.782;2023-07-28T13:13:36;16.17;;;7.63;;
56321;SDS011;42227;6.376;-10.782;2023-07-28T13:16:06;14.70;;;8.82;;
56321;SDS011;42227;6.376;-10.782;2023-07-28T13:18:39;13.52;;;8.15;;
56321;SDS011;42227;6.376;-10.782;2023-07-28T13:21:10;14.50;;;8.50;;
56321;SDS011;42227;6.376;-10.782;2023-07-28T13:23:39;21.52;;;9.57;;
56321;SDS011;42227;6.376;-10.782;2023-07-28T13:51:13;13.60;;;7.90;;
56321;SDS011;42227;6.376;-10.782;2023-07-28T13:53:50;12.27;;;9.63;;
56321;SDS011;42227;6.376;-10.782;2023-07-28T13:56:37;13.88;;;7.22;;
56321;SDS011;42227;6.376;-10.782;2023-07-28T13:59:28;8.43;;;7.10;;
56321;SDS011;42227;6.376;-10.782;2023-07-28T14:02:00;13.60;;;7.93;;
56321;SDS011;42227;6.376;-10.782;2023-07-28T14:04:30;11.05;;;8.10;;
56321;SDS011;42227;6.376;-10.782;2023-07-28T14:07:00;13.10;;;7.03;;
56321;SDS011;42227;6.376;-10.782;2023-07-28T14:09:31;16.27;;;8.35;;
56321;SDS011;42227;6.376;-10.782;2023-07-28T14:12:01;14.35;;;9.07;;
56321;SDS011;42227;6.376;-10.782;2023-07-28T14:14:32;12.32;;;8.57;;
56321;SDS011;42227;6.376;-10.782;2023-07-28T14:17:05;18.10;;;8.63;;
56321;SDS011;42227;6.376;-10.782;2023-07-28T14:19:39;15.23;;;10.00;;
56321;SDS011;42227;6.376;-10.782;2023-07-28T14:22:11;13.48;;;8.27;;
56321;SDS011;42227;6.376;-10.782;2023-07-28T14:24:43;8.25;;;5.53;;
56321;SDS011;42227;6.376;-10.782;2023-07-28T14:27:14;10.48;;;7.20;;
56321;SDS011;42227;6.376;-10.782;2023-07-28T14:29:45;13.05;;;7.72;;
56321;SDS011;42227;6.376;-10.782;2023-07-28T14:32:16;12.25;;;6.50;;
56321;SDS011;42227;6.376;-10.782;2023-07-28T14:34:46;14.18;;;7.50;;
56321;SDS011;42227;6.376;-10.782;2023-07-28T14:37:18;11.02;;;6.68;;
56321;SDS011;42227;6.376;-10.782;2023-07-28T14:39:54;14.00;;;6.80;;
56321;SDS011;42227;6.376;-10.782;2023-07-28T14:42:24;10.45;;;5.57;;
56321;SDS011;42227;6.376;-10.782;2023-07-28T14:44:56;9.73;;;6.40;;
56321;SDS011;42227;6.376;-10.782;2023-07-28T14:47:29;13.75;;;7.57;;
56321;SDS011;42227;6.376;-10.782;2023-07-28T14:50:00;21.52;;;8.57;;
56321;SDS011;42227;6.376;-10.782;2023-07-28T14:52:30;12.15;;;6.90;;
56321;SDS011;42227;6.376;-10.782;2023-07-28T14:55:00;18.08;;;7.90;;
56321;SDS011;42227;6.376;-10.782;2023-07-28T14:57:35;14.43;;;8.43;;
56321;SDS011;42227;6.376;-10.782;2023-07-28T15:00:07;24.38;;;12.13;;
56321;SDS011;42227;6.376;-10.782;2023-07-28T15:02:38;11.27;;;6.28;;
56321;SDS011;42227;6.376;-10.782;2023-07-28T15:05:09;18.48;;;9.52;;
56321;SDS011;42227;6.376;-10.782;2023-07-28T15:07:39;23.45;;;11.90;;
56321;SDS011;42227;6.376;-10.782;2023-07-28T15:10:11;47.03;;;30.02;;
56321;SDS011;42227;6.376;-10.782;2023-07-28T15:12:46;26.92;;;21.88;;
56321;SDS011;42227;6.376;-10.782;2023-07-28T15:15:18;41.47;;;30.27;;
56321;SDS011;42227;6.376;-10.782;2023-07-28T15:17:50;57.92;;;46.72;;
56321;SDS011;42227;6.376;-10.782;2023-07-28T15:20:26;44.42;;;36.58;;
56321;SDS011;42227;6.376;-10.782;2023-07-28T15:22:59;39.58;;;27.17;;
56321;SDS011;42227;6.376;-10.782;2023-07-28T15:25:32;29.73;;;22.52;;
56321;SDS011;42227;6.376;-10.782;2023-07-28T15:28:02;33.90;;;22.38;;
56321;SDS011;42227;6.376;-10.782;2023-07-28T15:30:33;26.77;;;21.92;;